Map

Track Data

SID SEASON NUMBER BASIN SUBBASIN NAME ISO_TIME NATURE LAT LON WMO_WIND WMO_PRES WMO_AGENCY TRACK_TYPE DIST2LAND LANDFALL IFLAG USA_AGENCY USA_ATCF_ID USA_LAT USA_LON USA_RECORD USA_STATUS USA_WIND USA_PRES USA_SSHS USA_R34_NE USA_R34_SE USA_R34_SW USA_R34_NW USA_R50_NE USA_R50_SE USA_R50_SW USA_R50_NW USA_R64_NE USA_R64_SE USA_R64_SW USA_R64_NW USA_POCI USA_ROCI USA_RMW USA_EYE TOKYO_LAT TOKYO_LON TOKYO_GRADE TOKYO_WIND TOKYO_PRES TOKYO_R50_DIR TOKYO_R50_LONG TOKYO_R50_SHORT TOKYO_R30_DIR TOKYO_R30_LONG TOKYO_R30_SHORT TOKYO_LAND CMA_LAT CMA_LON CMA_CAT CMA_WIND CMA_PRES HKO_LAT HKO_LON HKO_CAT HKO_WIND HKO_PRES NEWDELHI_LAT NEWDELHI_LON NEWDELHI_GRADE NEWDELHI_WIND NEWDELHI_PRES NEWDELHI_CI NEWDELHI_DP NEWDELHI_POCI REUNION_LAT REUNION_LON REUNION_TYPE REUNION_WIND REUNION_PRES REUNION_TNUM REUNION_CI REUNION_RMW REUNION_R34_NE REUNION_R34_SE REUNION_R34_SW REUNION_R34_NW REUNION_R50_NE REUNION_R50_SE REUNION_R50_SW REUNION_R50_NW REUNION_R64_NE REUNION_R64_SE REUNION_R64_SW REUNION_R64_NW BOM_LAT BOM_LON BOM_TYPE BOM_WIND BOM_PRES BOM_TNUM BOM_CI BOM_RMW BOM_R34_NE BOM_R34_SE BOM_R34_SW BOM_R34_NW BOM_R50_NE BOM_R50_SE BOM_R50_SW BOM_R50_NW BOM_R64_NE BOM_R64_SE BOM_R64_SW BOM_R64_NW BOM_ROCI BOM_POCI BOM_EYE BOM_POS_METHOD BOM_PRES_METHOD NADI_LAT NADI_LON NADI_CAT NADI_WIND NADI_PRES WELLINGTON_LAT WELLINGTON_LON WELLINGTON_WIND WELLINGTON_PRES DS824_LAT DS824_LON DS824_STAGE DS824_WIND DS824_PRES TD9636_LAT TD9636_LON TD9636_STAGE TD9636_WIND TD9636_PRES TD9635_LAT TD9635_LON TD9635_WIND TD9635_PRES TD9635_ROCI NEUMANN_LAT NEUMANN_LON NEUMANN_CLASS NEUMANN_WIND NEUMANN_PRES MLC_LAT MLC_LON MLC_CLASS MLC_WIND MLC_PRES USA_GUST BOM_GUST BOM_GUST_PER REUNION_GUST REUNION_GUST_PER USA_SEAHGT USA_SEARAD_NE USA_SEARAD_SE USA_SEARAD_SW USA_SEARAD_NW STORM_SPEED STORM_DIR
1916144S10066 1916 23 SI MM NOT_NAMED 1916-05-23 06:00:00 NR -9.70000 65.6000 reunion main 1440 1440 _____O________ -1 -9.70000 65.6000 99 9.90000 1 0
1916144S10066 1916 23 SI MM NOT_NAMED 1916-05-23 09:00:00 NR -9.74611 65.5759 main 1440 1431 _____P________ -1 -9.74611 65.5759 99 1 213
1916144S10066 1916 23 SI MM NOT_NAMED 1916-05-23 12:00:00 NR -9.79379 65.5494 main 1424 1424 _____P________ -1 -9.79379 65.5494 99 1 208
1916144S10066 1916 23 SI MM NOT_NAMED 1916-05-23 15:00:00 NR -9.84459 65.5179 main 1424 1424 _____P________ -1 -9.84459 65.5179 99 1 0
1916144S10066 1916 23 SI MM NOT_NAMED 1916-05-23 18:00:00 NR -9.84007 65.5232 main 1424 1415 _____P____O___ -1 -9.90008 65.4790 99 -9.60000 65.7000 2 1 219
1916144S10066 1916 23 SI MM NOT_NAMED 1916-05-23 21:00:00 NR -9.89797 65.4879 main 1415 1400 _____P____P___ -1 -9.96182 65.4303 99 -9.77028 65.6031 2 2 212
1916144S10066 1916 23 SI MM NOT_NAMED 1916-05-24 00:00:00 NR -9.99324 65.4231 main 1400 1384 _____P____P___ -1 -10.0313 65.3692 99 -9.94244 65.4950 2 3 216
1916144S10066 1916 23 SI MM NOT_NAMED 1916-05-24 03:00:00 NR -10.1143 65.3288 main 1384 1369 _____P____P___ -1 -10.1102 65.2932 99 -10.1184 65.3643 2 3 220
1916144S10066 1916 23 SI MM NOT_NAMED 1916-05-24 06:00:00 TS -10.2556 65.2000 reunion main 1359 1338 _____O___OO___ -1 -10.2000 65.2000 99 9.90000 -10.3000 65.2000 TC 35 -10.3000 65.2000 2 4 225
1916144S10066 1916 23 SI MM NOT_NAMED 1916-05-24 09:00:00 TS -10.4167 65.0211 main 1338 1307 _____P___PP___ -1 -10.3028 65.0871 99 -10.5001 64.9401 TC 35 -10.4888 64.9957 2 5 228
1916144S10066 1916 23 SI MM NOT_NAMED 1916-05-24 12:00:00 TS -10.5939 64.8156 main 1307 1276 _____P___OP___ -1 -10.4231 64.9528 99 -10.7000 64.7000 TC 35 -10.6851 64.7650 2 6 228
1916144S10066 1916 23 SI MM NOT_NAMED 1916-05-24 15:00:00 TS -10.7850 64.6049 main 1276 1245 _____P___PP___ -1 -10.5661 64.7953 99 -10.9000 64.4925 TC 35 -10.8888 64.5269 2 6 226
1916144S10066 1916 23 SI MM NOT_NAMED 1916-05-24 18:00:00 TS -10.9790 64.4044 main 1245 1214 _____P___OO___ -1 -10.7369 64.6131 99 -11.1000 64.3000 TC 35 -11.1000 64.3000 2 5 225
1916144S10066 1916 23 SI MM NOT_NAMED 1916-05-24 21:00:00 TS -11.1713 64.2131 main 1214 1184 _____P___PP___ -1 -10.9405 64.4043 99 -11.2925 64.0925 TC 35 -11.2810 64.1425 2 6 223
1916144S10066 1916 23 SI MM NOT_NAMED 1916-05-25 00:00:00 TS -11.3856 64.0204 main 1184 1153 _____P___OP___ -1 -11.1822 64.1671 99 -11.5000 63.9000 TC 35 -11.4746 63.9940 2 6 219
1916144S10066 1916 23 SI MM NOT_NAMED 1916-05-25 03:00:00 TS -11.6284 63.8318 main 1153 1113 _____P___PP___ -1 -11.4669 63.8996 99 -11.7124 63.7723 TC 35 -11.7059 63.8235 2 7 217
1916144S10066 1916 23 SI MM NOT_NAMED 1916-05-25 06:00:00 TS -11.9333 63.6000 reunion main 1113 1057 _____O___OO___ -1 -11.8000 63.6000 99 9.90000 -12.0000 63.6000 TC 35 -12.0000 63.6000 2 9 218
1916144S10066 1916 23 SI MM NOT_NAMED 1916-05-25 09:00:00 TS -12.3233 63.2732 main 1057 996 _____P___PP___ -1 -12.1725 63.2374 99 -12.4200 63.2875 TC 35 -12.3773 63.2947 2 11 220
1916144S10066 1916 23 SI MM NOT_NAMED 1916-05-25 12:00:00 TS -12.7704 62.8891 main 987 926 _____P___OP___ -1 -12.5935 62.8349 99 -12.9000 62.9000 TC 35 -12.8176 62.9323 2 12 220
1916144S10066 1916 23 SI MM NOT_NAMED 1916-05-25 15:00:00 TS -13.2328 62.4830 main 926 855 _____P___PP___ -1 -13.0569 62.4052 99 -13.3424 62.5148 TC 35 -13.2991 62.5288 2 13 221
1916144S10066 1916 23 SI MM NOT_NAMED 1916-05-25 18:00:00 TS -13.7189 62.0537 main 855 779 _____P___OO___ -1 -13.5566 61.9612 99 -13.8000 62.1000 TC 35 -13.8000 62.1000 2 13 221
1916144S10066 1916 23 SI MM NOT_NAMED 1916-05-25 21:00:00 TS -14.2189 61.6107 main 779 709 _____P___PP___ -1 -14.0865 61.5156 99 -14.2925 61.6574 TC 35 -14.2776 61.6592 2 13 220
1916144S10066 1916 23 SI MM NOT_NAMED 1916-05-26 00:00:00 TS -14.7370 61.1604 main 709 633 _____P___OP___ -1 -14.6409 61.0815 99 -14.8000 61.2000 TC 35 -14.7702 61.1997 2 14 220
1916144S10066 1916 23 SI MM NOT_NAMED 1916-05-26 03:00:00 TS -15.2613 60.7182 main 624 554 _____P___PP___ -1 -15.2139 60.6718 99 -15.2925 60.7423 TC 35 -15.2776 60.7403 2 14 218
1916144S10066 1916 23 SI MM NOT_NAMED 1916-05-26 06:00:00 TS -15.8000 60.3000 reunion main 554 484 _____O___OO___ -1 -15.8000 60.3000 99 9.90000 -15.8000 60.3000 TC 35 -15.8000 60.3000 2 14 216
1916144S10066 1916 23 SI MM NOT_NAMED 1916-05-26 09:00:00 TS -16.3590 59.8904 main 474 405 _____P___PP___ -1 -16.4192 59.9315 99 -16.3424 59.8848 TC 35 -16.3154 59.8549 2 14 214
1916144S10066 1916 23 SI MM NOT_NAMED 1916-05-26 12:00:00 TS -16.9372 59.5082 main 405 330 _____P___OP___ -1 -17.0638 59.5866 99 -16.9000 59.5000 TC 35 -16.8477 59.4380 2 14 211
1916144S10066 1916 23 SI MM NOT_NAMED 1916-05-26 15:00:00 TS -17.5179 59.1624 main 330 256 _____P___PP___ -1 -17.7202 59.2754 99 -17.4274 59.1347 TC 35 -17.4061 59.0770 2 13 207
1916144S10066 1916 23 SI MM NOT_NAMED 1916-05-26 18:00:00 TS -18.1248 58.8694 main 256 173 _____P___OO___ -1 -18.3745 59.0083 99 -18.0000 58.8000 TC 35 -18.0000 58.8000 2 14 203
1916144S10066 1916 23 SI MM NOT_NAMED 1916-05-26 21:00:00 TS -18.7979 58.5959 main 173 107 _____P___PP___ -1 -19.0134 58.7962 99 -18.6851 58.4257 TC 35 -18.6952 58.5659 2 14 197
1916144S10066 1916 23 SI MM NOT_NAMED 1916-05-27 00:00:00 TS -19.4798 58.4252 main 99 66 _____P___OP___ -1 -19.6230 58.6499 99 -19.4000 58.2000 TC 35 -19.4164 58.4256 2 14 187
1916144S10066 1916 23 SI MM NOT_NAMED 1916-05-27 03:00:00 TS -20.1322 58.4100 main 66 62 _____P___PP___ -1 -20.1898 58.5808 99 -20.1023 58.2519 TC 35 -20.1045 58.3974 2 12 175
1916144S10066 1916 23 SI MM NOT_NAMED 1916-05-27 06:00:00 TS -20.7000 58.5333 reunion main 85 85 _____O___OO___ -1 -20.7000 58.6000 99 9.90000 -20.7000 58.5000 TC 35 -20.7000 58.5000 2 11 161
1916144S10066 1916 23 SI MM NOT_NAMED 1916-05-27 09:00:00 TS -21.1256 58.7739 main 132 132 _____P___PP___ -1 -21.1359 58.7565 99 -21.1025 58.8126 TC 35 -21.1383 58.7525 2 9 145
1916144S10066 1916 23 SI MM NOT_NAMED 1916-05-27 12:00:00 TS -21.4663 59.1131 main 183 183 _____P___OP___ -1 -21.5207 59.0108 99 -21.4000 59.2000 TC 35 -21.4783 59.1286 2 9 134
1916144S10066 1916 23 SI MM NOT_NAMED 1916-05-27 15:00:00 TS -21.7759 59.5044 main 236 236 _____P___PP___ -1 -21.8585 59.3401 99 -21.7150 59.6075 TC 35 -21.7540 59.5655 2 9 128
1916144S10066 1916 23 SI MM NOT_NAMED 1916-05-27 18:00:00 TS -22.0513 59.9072 main 289 289 _____P___OO___ -1 -22.1538 59.7216 99 -22.0000 60.0000 TC 35 -22.0000 60.0000 2 9 127
1916144S10066 1916 23 SI MM NOT_NAMED 1916-05-27 21:00:00 TS -22.3045 60.2739 main 336 336 _____P___PP___ -1 -22.4109 60.1318 99 -22.2573 60.3078 TC 35 -22.2453 60.3821 2 8 127
1916144S10066 1916 23 SI MM NOT_NAMED 1916-05-28 00:00:00 TS -22.5522 60.6135 main 380 380 _____P___OP___ -1 -22.6344 60.5474 99 -22.5000 60.6000 TC 35 -22.4946 60.7150 2 8 127
1916144S10066 1916 23 SI MM NOT_NAMED 1916-05-28 03:00:00 TS -22.7882 60.9599 main 427 427 _____P___PP___ -1 -22.8291 60.9447 99 -22.7477 60.9346 TC 35 -22.7467 61.0154 2 8 125
1916144S10066 1916 23 SI MM NOT_NAMED 1916-05-28 06:00:00 TS -23.0000 61.3000 reunion main 465 465 _____O___OO___ -1 -23.0000 61.3000 99 9.90000 -23.0000 61.3000 TC 35 -23.0000 61.3000 2 7 122
1916144S10066 1916 23 SI MM NOT_NAMED 1916-05-28 09:00:00 NR -23.1519 61.5948 main 502 502 _____P________ -1 -23.1519 61.5948 99 TC 2 6 120
1916144S10066 1916 23 SI MM NOT_NAMED 1916-05-28 12:00:00 NR -23.2878 61.8319 main 526 526 _____P________ -1 -23.2878 61.8319 99 2 5 123
1916144S10066 1916 23 SI MM NOT_NAMED 1916-05-28 15:00:00 NR -23.4102 62.0193 main 549 549 _____P________ -1 -23.4102 62.0193 99 2 4 127
1916144S10066 1916 23 SI MM NOT_NAMED 1916-05-28 18:00:00 NR -23.5214 62.1653 main 572 572 _____P________ -1 -23.5214 62.1653 99 3 132
1916144S10066 1916 23 SI MM NOT_NAMED 1916-05-28 21:00:00 NR -23.6238 62.2781 main 587 587 _____P________ -1 -23.6238 62.2781 99 3 137
1916144S10066 1916 23 SI MM NOT_NAMED 1916-05-29 00:00:00 NR -23.7195 62.3659 main 601 601 _____P________ -1 -23.7195 62.3659 99 2 142
1916144S10066 1916 23 SI MM NOT_NAMED 1916-05-29 03:00:00 NR -23.8108 62.4371 main 608 608 _____P________ -1 -23.8108 62.4371 99 2 145
1916144S10066 1916 23 SI MM NOT_NAMED 1916-05-29 06:00:00 NR -23.9000 62.5000 reunion main 623 _____O________ -1 -23.9000 62.5000 99 9.90000 2 148

About IBTrACS Database

This database is a web-friendly format of International Best Track Archive for Climate Stewardship (IBTrACS), a global best track data archive curated by NOAA dating back to 1842.

Updated: 2021-10-27